sensor_id;sensor_type;location;lat;lon;timestamp;P1;durP1;ratioP1;P2;durP2;ratioP2
1679;SDS011;838;51.794;12.258;2023-06-24T00:02:01;14.97;;;11.80;;
1679;SDS011;838;51.794;12.258;2023-06-24T00:04:27;13.43;;;10.90;;
1679;SDS011;838;51.794;12.258;2023-06-24T00:06:53;13.93;;;11.90;;
1679;SDS011;838;51.794;12.258;2023-06-24T00:09:21;17.20;;;12.87;;
1679;SDS011;838;51.794;12.258;2023-06-24T00:11:47;9.97;;;8.23;;
1679;SDS011;838;51.794;12.258;2023-06-24T00:14:12;12.13;;;9.47;;
1679;SDS011;838;51.794;12.258;2023-06-24T00:16:40;12.80;;;9.87;;
1679;SDS011;838;51.794;12.258;2023-06-24T00:19:06;14.30;;;11.60;;
1679;SDS011;838;51.794;12.258;2023-06-24T00:21:33;14.10;;;11.07;;
1679;SDS011;838;51.794;12.258;2023-06-24T00:23:59;16.03;;;13.03;;
1679;SDS011;838;51.794;12.258;2023-06-24T00:26:30;15.00;;;11.93;;
1679;SDS011;838;51.794;12.258;2023-06-24T00:28:57;15.90;;;12.30;;
1679;SDS011;838;51.794;12.258;2023-06-24T00:31:23;17.30;;;12.53;;
1679;SDS011;838;51.794;12.258;2023-06-24T00:33:49;17.03;;;11.87;;
1679;SDS011;838;51.794;12.258;2023-06-24T00:36:17;13.47;;;11.23;;
1679;SDS011;838;51.794;12.258;2023-06-24T00:38:42;17.90;;;11.07;;
1679;SDS011;838;51.794;12.258;2023-06-24T00:41:08;15.20;;;11.80;;
1679;SDS011;838;51.794;12.258;2023-06-24T00:43:34;16.90;;;11.23;;
1679;SDS011;838;51.794;12.258;2023-06-24T00:46:00;15.10;;;12.07;;
1679;SDS011;838;51.794;12.258;2023-06-24T00:48:26;13.80;;;11.40;;
1679;SDS011;838;51.794;12.258;2023-06-24T00:50:52;15.37;;;12.23;;
1679;SDS011;838;51.794;12.258;2023-06-24T00:53:18;14.47;;;11.90;;
1679;SDS011;838;51.794;12.258;2023-06-24T00:55:44;14.27;;;11.77;;
1679;SDS011;838;51.794;12.258;2023-06-24T00:58:11;14.40;;;11.37;;
1679;SDS011;838;51.794;12.258;2023-06-24T01:00:44;19.77;;;11.10;;
1679;SDS011;838;51.794;12.258;2023-06-24T01:03:11;13.87;;;10.90;;
1679;SDS011;838;51.794;12.258;2023-06-24T01:05:42;13.03;;;11.00;;
1679;SDS011;838;51.794;12.258;2023-06-24T01:08:10;15.73;;;11.00;;
1679;SDS011;838;51.794;12.258;2023-06-24T01:10:41;17.60;;;12.20;;
1679;SDS011;838;51.794;12.258;2023-06-24T01:13:07;14.57;;;11.30;;
1679;SDS011;838;51.794;12.258;2023-06-24T01:15:34;12.40;;;10.27;;
1679;SDS011;838;51.794;12.258;2023-06-24T01:21:42;13.67;;;11.17;;
1679;SDS011;838;51.794;12.258;2023-06-24T01:27:29;14.40;;;10.80;;
1679;SDS011;838;51.794;12.258;2023-06-24T01:33:21;15.53;;;10.73;;
1679;SDS011;838;51.794;12.258;2023-06-24T01:35:51;15.37;;;12.10;;
1679;SDS011;838;51.794;12.258;2023-06-24T01:38:24;15.37;;;11.47;;
1679;SDS011;838;51.794;12.258;2023-06-24T01:40:57;12.83;;;10.23;;
1679;SDS011;838;51.794;12.258;2023-06-24T01:43:24;15.70;;;11.20;;
1679;SDS011;838;51.794;12.258;2023-06-24T01:45:51;13.00;;;11.43;;
1679;SDS011;838;51.794;12.258;2023-06-24T01:48:24;13.97;;;10.70;;
1679;SDS011;838;51.794;12.258;2023-06-24T01:53:50;14.73;;;11.80;;
1679;SDS011;838;51.794;12.258;2023-06-24T01:56:18;17.70;;;12.47;;
1679;SDS011;838;51.794;12.258;2023-06-24T01:58:47;17.33;;;11.03;;
1679;SDS011;838;51.794;12.258;2023-06-24T02:01:17;13.83;;;11.30;;
1679;SDS011;838;51.794;12.258;2023-06-24T02:03:43;12.07;;;10.30;;
1679;SDS011;838;51.794;12.258;2023-06-24T02:06:09;15.43;;;12.07;;
1679;SDS011;838;51.794;12.258;2023-06-24T02:08:38;19.67;;;11.70;;
1679;SDS011;838;51.794;12.258;2023-06-24T02:11:06;18.47;;;11.00;;
1679;SDS011;838;51.794;12.258;2023-06-24T02:13:34;15.47;;;12.40;;
1679;SDS011;838;51.794;12.258;2023-06-24T02:16:01;15.00;;;11.53;;
1679;SDS011;838;51.794;12.258;2023-06-24T02:18:30;16.37;;;12.20;;
1679;SDS011;838;51.794;12.258;2023-06-24T02:20:56;14.33;;;11.13;;
1679;SDS011;838;51.794;12.258;2023-06-24T02:23:24;18.30;;;11.20;;
1679;SDS011;838;51.794;12.258;2023-06-24T02:25:50;16.07;;;12.03;;
1679;SDS011;838;51.794;12.258;2023-06-24T02:28:17;16.17;;;11.60;;
1679;SDS011;838;51.794;12.258;2023-06-24T02:30:43;15.97;;;12.03;;
1679;SDS011;838;51.794;12.258;2023-06-24T02:33:10;15.83;;;11.43;;
1679;SDS011;838;51.794;12.258;2023-06-24T02:35:37;15.93;;;12.40;;
1679;SDS011;838;51.794;12.258;2023-06-24T02:38:03;14.77;;;11.77;;
1679;SDS011;838;51.794;12.258;2023-06-24T02:40:29;16.50;;;12.27;;
1679;SDS011;838;51.794;12.258;2023-06-24T02:42:56;16.73;;;11.90;;
1679;SDS011;838;51.794;12.258;2023-06-24T02:45:23;17.53;;;12.40;;
1679;SDS011;838;51.794;12.258;2023-06-24T02:47:49;17.13;;;12.77;;
1679;SDS011;838;51.794;12.258;2023-06-24T02:50:16;13.23;;;11.30;;
1679;SDS011;838;51.794;12.258;2023-06-24T02:52:43;17.40;;;11.70;;
1679;SDS011;838;51.794;12.258;2023-06-24T02:55:09;15.03;;;11.17;;
1679;SDS011;838;51.794;12.258;2023-06-24T02:57:35;19.37;;;9.37;;
1679;SDS011;838;51.794;12.258;2023-06-24T03:00:02;12.80;;;10.70;;
1679;SDS011;838;51.794;12.258;2023-06-24T03:02:37;12.77;;;10.03;;
1679;SDS011;838;51.794;12.258;2023-06-24T03:05:03;15.33;;;11.20;;
1679;SDS011;838;51.794;12.258;2023-06-24T03:07:31;11.80;;;9.47;;
1679;SDS011;838;51.794;12.258;2023-06-24T03:10:00;17.60;;;10.03;;
1679;SDS011;838;51.794;12.258;2023-06-24T03:12:30;12.80;;;9.60;;
1679;SDS011;838;51.794;12.258;2023-06-24T03:14:57;13.03;;;9.97;;
1679;SDS011;838;51.794;12.258;2023-06-24T03:17:23;13.10;;;10.07;;
1679;SDS011;838;51.794;12.258;2023-06-24T03:19:50;14.60;;;10.00;;
1679;SDS011;838;51.794;12.258;2023-06-24T03:22:15;12.27;;;9.70;;
1679;SDS011;838;51.794;12.258;2023-06-24T03:24:42;13.03;;;9.97;;
1679;SDS011;838;51.794;12.258;2023-06-24T03:27:08;12.60;;;9.47;;
1679;SDS011;838;51.794;12.258;2023-06-24T03:29:34;13.40;;;10.97;;
1679;SDS011;838;51.794;12.258;2023-06-24T03:32:00;12.97;;;10.13;;
1679;SDS011;838;51.794;12.258;2023-06-24T03:34:25;13.20;;;10.33;;
1679;SDS011;838;51.794;12.258;2023-06-24T03:36:52;11.43;;;9.00;;
1679;SDS011;838;51.794;12.258;2023-06-24T03:39:22;18.13;;;10.10;;
1679;SDS011;838;51.794;12.258;2023-06-24T03:41:49;14.20;;;10.50;;
1679;SDS011;838;51.794;12.258;2023-06-24T03:44:14;13.43;;;9.50;;
1679;SDS011;838;51.794;12.258;2023-06-24T03:46:40;13.03;;;9.20;;
1679;SDS011;838;51.794;12.258;2023-06-24T03:49:06;12.60;;;9.80;;
1679;SDS011;838;51.794;12.258;2023-06-24T03:51:32;12.73;;;9.20;;
1679;SDS011;838;51.794;12.258;2023-06-24T03:53:57;13.93;;;8.80;;
1679;SDS011;838;51.794;12.258;2023-06-24T03:56:23;13.70;;;9.50;;
1679;SDS011;838;51.794;12.258;2023-06-24T03:58:49;17.20;;;11.17;;
1679;SDS011;838;51.794;12.258;2023-06-24T04:01:15;11.40;;;9.17;;
1679;SDS011;838;51.794;12.258;2023-06-24T04:03:44;13.20;;;9.23;;
1679;SDS011;838;51.794;12.258;2023-06-24T04:06:12;14.20;;;10.07;;
1679;SDS011;838;51.794;12.258;2023-06-24T04:08:38;14.13;;;9.30;;
1679;SDS011;838;51.794;12.258;2023-06-24T04:11:04;13.57;;;9.53;;
1679;SDS011;838;51.794;12.258;2023-06-24T04:13:31;14.20;;;9.97;;
1679;SDS011;838;51.794;12.258;2023-06-24T04:15:57;13.20;;;8.87;;
1679;SDS011;838;51.794;12.258;2023-06-24T04:18:23;11.27;;;8.63;;
1679;SDS011;838;51.794;12.258;2023-06-24T04:20:49;16.30;;;9.40;;
1679;SDS011;838;51.794;12.258;2023-06-24T04:23:15;13.30;;;9.60;;
1679;SDS011;838;51.794;12.258;2023-06-24T04:25:41;11.50;;;8.80;;
1679;SDS011;838;51.794;12.258;2023-06-24T04:28:07;15.03;;;9.57;;
1679;SDS011;838;51.794;12.258;2023-06-24T04:30:33;11.80;;;9.30;;
1679;SDS011;838;51.794;12.258;2023-06-24T04:33:03;15.07;;;9.80;;
1679;SDS011;838;51.794;12.258;2023-06-24T04:35:30;12.67;;;9.73;;
1679;SDS011;838;51.794;12.258;2023-06-24T04:37:56;16.90;;;9.10;;
1679;SDS011;838;51.794;12.258;2023-06-24T04:40:22;13.10;;;9.17;;
1679;SDS011;838;51.794;12.258;2023-06-24T04:42:48;14.83;;;9.57;;
1679;SDS011;838;51.794;12.258;2023-06-24T04:45:13;12.00;;;8.53;;
1679;SDS011;838;51.794;12.258;2023-06-24T04:47:40;15.40;;;10.30;;
1679;SDS011;838;51.794;12.258;2023-06-24T04:50:05;12.40;;;9.03;;
1679;SDS011;838;51.794;12.258;2023-06-24T04:52:34;13.83;;;9.70;;
1679;SDS011;838;51.794;12.258;2023-06-24T04:55:00;17.07;;;9.37;;
1679;SDS011;838;51.794;12.258;2023-06-24T04:57:27;16.10;;;8.83;;
1679;SDS011;838;51.794;12.258;2023-06-24T04:59:54;15.90;;;9.70;;
1679;SDS011;838;51.794;12.258;2023-06-24T05:02:20;15.60;;;9.90;;
1679;SDS011;838;51.794;12.258;2023-06-24T05:04:45;14.17;;;9.50;;
1679;SDS011;838;51.794;12.258;2023-06-24T05:07:11;14.23;;;9.13;;
1679;SDS011;838;51.794;12.258;2023-06-24T05:09:37;15.97;;;9.50;;
1679;SDS011;838;51.794;12.258;2023-06-24T05:12:06;13.00;;;8.80;;
1679;SDS011;838;51.794;12.258;2023-06-24T05:14:35;15.87;;;8.17;;
1679;SDS011;838;51.794;12.258;2023-06-24T05:17:04;13.23;;;9.00;;
1679;SDS011;838;51.794;12.258;2023-06-24T05:19:31;10.37;;;9.07;;
1679;SDS011;838;51.794;12.258;2023-06-24T05:21:57;14.87;;;8.30;;
1679;SDS011;838;51.794;12.258;2023-06-24T05:24:22;13.57;;;8.37;;
1679;SDS011;838;51.794;12.258;2023-06-24T05:26:49;11.13;;;7.63;;
1679;SDS011;838;51.794;12.258;2023-06-24T05:29:15;11.10;;;8.33;;
1679;SDS011;838;51.794;12.258;2023-06-24T05:31:41;11.10;;;8.60;;
1679;SDS011;838;51.794;12.258;2023-06-24T05:34:07;13.90;;;8.70;;
1679;SDS011;838;51.794;12.258;2023-06-24T05:36:33;12.93;;;8.50;;
1679;SDS011;838;51.794;12.258;2023-06-24T05:38:59;12.10;;;8.17;;
1679;SDS011;838;51.794;12.258;2023-06-24T05:41:25;13.00;;;7.80;;
1679;SDS011;838;51.794;12.258;2023-06-24T05:44:00;10.77;;;7.77;;
1679;SDS011;838;51.794;12.258;2023-06-24T05:46:35;13.17;;;8.40;;
1679;SDS011;838;51.794;12.258;2023-06-24T05:49:01;12.30;;;8.00;;
1679;SDS011;838;51.794;12.258;2023-06-24T05:51:27;11.20;;;7.60;;
1679;SDS011;838;51.794;12.258;2023-06-24T05:53:53;12.67;;;8.17;;
1679;SDS011;838;51.794;12.258;2023-06-24T05:56:19;9.90;;;7.50;;
1679;SDS011;838;51.794;12.258;2023-06-24T05:58:47;14.30;;;8.20;;
1679;SDS011;838;51.794;12.258;2023-06-24T06:01:14;10.40;;;7.90;;
1679;SDS011;838;51.794;12.258;2023-06-24T06:03:40;14.13;;;7.83;;
1679;SDS011;838;51.794;12.258;2023-06-24T06:06:06;11.40;;;7.43;;
1679;SDS011;838;51.794;12.258;2023-06-24T06:08:32;10.30;;;7.33;;
1679;SDS011;838;51.794;12.258;2023-06-24T06:10:59;11.00;;;8.80;;
1679;SDS011;838;51.794;12.258;2023-06-24T06:13:27;11.53;;;7.67;;
1679;SDS011;838;51.794;12.258;2023-06-24T06:15:53;9.50;;;7.10;;
1679;SDS011;838;51.794;12.258;2023-06-24T06:18:19;10.80;;;8.17;;
1679;SDS011;838;51.794;12.258;2023-06-24T06:20:44;12.23;;;8.50;;
1679;SDS011;838;51.794;12.258;2023-06-24T06:23:10;15.07;;;8.13;;
1679;SDS011;838;51.794;12.258;2023-06-24T06:25:36;10.93;;;8.03;;
1679;SDS011;838;51.794;12.258;2023-06-24T06:28:03;12.40;;;8.90;;
1679;SDS011;838;51.794;12.258;2023-06-24T06:30:29;16.47;;;9.47;;
1679;SDS011;838;51.794;12.258;2023-06-24T06:32:54;11.13;;;8.93;;
1679;SDS011;838;51.794;12.258;2023-06-24T06:35:20;10.70;;;8.10;;
1679;SDS011;838;51.794;12.258;2023-06-24T06:37:46;11.50;;;9.00;;
1679;SDS011;838;51.794;12.258;2023-06-24T06:40:17;14.40;;;9.13;;
1679;SDS011;838;51.794;12.258;2023-06-24T06:42:43;11.07;;;8.40;;
1679;SDS011;838;51.794;12.258;2023-06-24T06:45:09;9.90;;;7.07;;
1679;SDS011;838;51.794;12.258;2023-06-24T06:47:35;11.53;;;8.37;;
1679;SDS011;838;51.794;12.258;2023-06-24T06:50:00;8.83;;;6.80;;
1679;SDS011;838;51.794;12.258;2023-06-24T06:52:26;8.87;;;7.10;;
1679;SDS011;838;51.794;12.258;2023-06-24T06:54:53;11.90;;;8.57;;
1679;SDS011;838;51.794;12.258;2023-06-24T06:57:19;9.93;;;7.93;;
1679;SDS011;838;51.794;12.258;2023-06-24T06:59:45;10.17;;;7.03;;
1679;SDS011;838;51.794;12.258;2023-06-24T07:02:11;11.90;;;8.47;;
1679;SDS011;838;51.794;12.258;2023-06-24T07:04:36;9.53;;;7.40;;
1679;SDS011;838;51.794;12.258;2023-06-24T07:07:02;8.80;;;6.30;;
1679;SDS011;838;51.794;12.258;2023-06-24T07:09:28;9.93;;;7.10;;
1679;SDS011;838;51.794;12.258;2023-06-24T07:11:54;7.43;;;5.60;;
1679;SDS011;838;51.794;12.258;2023-06-24T07:14:20;11.20;;;6.93;;
1679;SDS011;838;51.794;12.258;2023-06-24T07:16:45;9.03;;;6.37;;
1679;SDS011;838;51.794;12.258;2023-06-24T07:19:11;9.10;;;6.10;;
1679;SDS011;838;51.794;12.258;2023-06-24T07:21:37;9.33;;;6.20;;
1679;SDS011;838;51.794;12.258;2023-06-24T07:24:04;8.20;;;5.97;;
1679;SDS011;838;51.794;12.258;2023-06-24T07:26:30;10.33;;;7.77;;
1679;SDS011;838;51.794;12.258;2023-06-24T07:28:56;9.40;;;6.50;;
1679;SDS011;838;51.794;12.258;2023-06-24T07:31:25;9.33;;;6.50;;
1679;SDS011;838;51.794;12.258;2023-06-24T07:33:51;8.27;;;6.00;;
1679;SDS011;838;51.794;12.258;2023-06-24T07:36:17;8.77;;;5.97;;
1679;SDS011;838;51.794;12.258;2023-06-24T07:38:43;8.77;;;6.00;;
1679;SDS011;838;51.794;12.258;2023-06-24T07:41:09;7.83;;;5.80;;
1679;SDS011;838;51.794;12.258;2023-06-24T07:43:35;8.50;;;5.93;;
1679;SDS011;838;51.794;12.258;2023-06-24T07:46:01;7.20;;;4.97;;
1679;SDS011;838;51.794;12.258;2023-06-24T07:48:27;9.83;;;5.77;;
1679;SDS011;838;51.794;12.258;2023-06-24T07:50:53;6.97;;;4.60;;
1679;SDS011;838;51.794;12.258;2023-06-24T07:53:18;8.93;;;5.97;;
1679;SDS011;838;51.794;12.258;2023-06-24T07:55:44;7.63;;;6.20;;
1679;SDS011;838;51.794;12.258;2023-06-24T07:58:10;8.70;;;5.30;;
1679;SDS011;838;51.794;12.258;2023-06-24T08:00:36;6.67;;;4.70;;
1679;SDS011;838;51.794;12.258;2023-06-24T08:03:02;7.87;;;5.43;;
1679;SDS011;838;51.794;12.258;2023-06-24T08:05:28;7.53;;;4.53;;
1679;SDS011;838;51.794;12.258;2023-06-24T08:07:54;7.37;;;4.53;;
1679;SDS011;838;51.794;12.258;2023-06-24T08:10:19;7.60;;;5.17;;
1679;SDS011;838;51.794;12.258;2023-06-24T08:12:45;7.70;;;5.00;;
1679;SDS011;838;51.794;12.258;2023-06-24T08:15:11;7.00;;;5.10;;
1679;SDS011;838;51.794;12.258;2023-06-24T08:17:38;7.80;;;4.90;;
1679;SDS011;838;51.794;12.258;2023-06-24T08:20:03;8.00;;;4.87;;
1679;SDS011;838;51.794;12.258;2023-06-24T08:22:30;7.07;;;5.50;;
1679;SDS011;838;51.794;12.258;2023-06-24T08:24:56;6.97;;;5.33;;
1679;SDS011;838;51.794;12.258;2023-06-24T08:27:21;7.27;;;5.53;;
1679;SDS011;838;51.794;12.258;2023-06-24T08:29:47;8.03;;;5.33;;
1679;SDS011;838;51.794;12.258;2023-06-24T08:32:13;8.00;;;5.87;;
1679;SDS011;838;51.794;12.258;2023-06-24T08:34:39;6.63;;;5.50;;
1679;SDS011;838;51.794;12.258;2023-06-24T08:37:04;8.80;;;5.50;;
1679;SDS011;838;51.794;12.258;2023-06-24T08:39:30;7.33;;;4.87;;
1679;SDS011;838;51.794;12.258;2023-06-24T08:41:56;6.77;;;4.87;;
1679;SDS011;838;51.794;12.258;2023-06-24T08:44:21;9.83;;;5.23;;
1679;SDS011;838;51.794;12.258;2023-06-24T08:46:47;6.03;;;4.77;;
1679;SDS011;838;51.794;12.258;2023-06-24T08:51:55;6.70;;;4.40;;
1679;SDS011;838;51.794;12.258;2023-06-24T08:54:26;8.50;;;4.67;;
1679;SDS011;838;51.794;12.258;2023-06-24T08:56:53;7.10;;;5.30;;
1679;SDS011;838;51.794;12.258;2023-06-24T08:59:18;7.10;;;5.37;;
1679;SDS011;838;51.794;12.258;2023-06-24T09:01:49;11.53;;;5.67;;
1679;SDS011;838;51.794;12.258;2023-06-24T09:04:15;8.03;;;4.40;;
1679;SDS011;838;51.794;12.258;2023-06-24T09:06:41;7.20;;;4.87;;
1679;SDS011;838;51.794;12.258;2023-06-24T09:09:17;6.40;;;5.17;;
1679;SDS011;838;51.794;12.258;2023-06-24T09:11:57;8.70;;;5.90;;
1679;SDS011;838;51.794;12.258;2023-06-24T09:14:24;10.03;;;5.17;;
1679;SDS011;838;51.794;12.258;2023-06-24T09:16:54;7.67;;;4.90;;
1679;SDS011;838;51.794;12.258;2023-06-24T09:19:22;6.63;;;4.90;;
1679;SDS011;838;51.794;12.258;2023-06-24T09:21:49;7.40;;;4.70;;
1679;SDS011;838;51.794;12.258;2023-06-24T09:24:16;6.37;;;4.57;;
1679;SDS011;838;51.794;12.258;2023-06-24T09:26:43;7.00;;;4.40;;
1679;SDS011;838;51.794;12.258;2023-06-24T09:29:15;5.37;;;3.37;;
1679;SDS011;838;51.794;12.258;2023-06-24T09:31:47;4.93;;;3.33;;
1679;SDS011;838;51.794;12.258;2023-06-24T09:34:21;5.00;;;3.30;;
1679;SDS011;838;51.794;12.258;2023-06-24T09:36:51;7.83;;;3.50;;
1679;SDS011;838;51.794;12.258;2023-06-24T09:39:18;5.17;;;4.00;;
1679;SDS011;838;51.794;12.258;2023-06-24T09:41:50;4.60;;;3.00;;
1679;SDS011;838;51.794;12.258;2023-06-24T09:44:16;5.10;;;2.77;;
1679;SDS011;838;51.794;12.258;2023-06-24T09:46:44;5.13;;;2.80;;
1679;SDS011;838;51.794;12.258;2023-06-24T09:49:10;4.67;;;3.00;;
1679;SDS011;838;51.794;12.258;2023-06-24T09:51:39;4.70;;;2.90;;
1679;SDS011;838;51.794;12.258;2023-06-24T09:54:08;4.57;;;2.80;;
1679;SDS011;838;51.794;12.258;2023-06-24T09:56:35;5.10;;;2.97;;
1679;SDS011;838;51.794;12.258;2023-06-24T09:59:05;4.40;;;3.10;;
1679;SDS011;838;51.794;12.258;2023-06-24T10:01:32;5.50;;;3.53;;
1679;SDS011;838;51.794;12.258;2023-06-24T10:04:03;4.90;;;2.50;;
1679;SDS011;838;51.794;12.258;2023-06-24T10:06:33;4.10;;;3.30;;
1679;SDS011;838;51.794;12.258;2023-06-24T10:09:00;4.13;;;2.97;;
1679;SDS011;838;51.794;12.258;2023-06-24T10:11:26;4.73;;;3.40;;
1679;SDS011;838;51.794;12.258;2023-06-24T10:13:52;4.63;;;3.40;;
1679;SDS011;838;51.794;12.258;2023-06-24T10:16:19;4.83;;;3.63;;
1679;SDS011;838;51.794;12.258;2023-06-24T10:18:45;4.33;;;3.37;;
1679;SDS011;838;51.794;12.258;2023-06-24T10:21:11;5.07;;;3.73;;
1679;SDS011;838;51.794;12.258;2023-06-24T10:26:29;5.30;;;3.67;;
1679;SDS011;838;51.794;12.258;2023-06-24T10:31:50;5.20;;;3.67;;
1679;SDS011;838;51.794;12.258;2023-06-24T10:42:43;6.67;;;3.43;;
1679;SDS011;838;51.794;12.258;2023-06-24T10:44:50;5.83;;;3.60;;
1679;SDS011;838;51.794;12.258;2023-06-24T10:47:17;5.60;;;3.20;;
1679;SDS011;838;51.794;12.258;2023-06-24T10:49:43;5.37;;;3.83;;
1679;SDS011;838;51.794;12.258;2023-06-24T10:52:12;6.13;;;3.57;;
1679;SDS011;838;51.794;12.258;2023-06-24T10:54:38;7.10;;;3.13;;
1679;SDS011;838;51.794;12.258;2023-06-24T10:57:05;4.23;;;2.80;;
1679;SDS011;838;51.794;12.258;2023-06-24T10:59:34;6.47;;;3.70;;
1679;SDS011;838;51.794;12.258;2023-06-24T11:02:00;4.80;;;3.13;;
1679;SDS011;838;51.794;12.258;2023-06-24T11:04:26;4.90;;;3.20;;
1679;SDS011;838;51.794;12.258;2023-06-24T11:06:58;4.10;;;3.10;;
1679;SDS011;838;51.794;12.258;2023-06-24T11:09:24;4.80;;;3.50;;
1679;SDS011;838;51.794;12.258;2023-06-24T11:11:50;3.83;;;2.63;;
1679;SDS011;838;51.794;12.258;2023-06-24T11:14:17;4.57;;;2.80;;
1679;SDS011;838;51.794;12.258;2023-06-24T11:16:47;5.60;;;2.77;;
1679;SDS011;838;51.794;12.258;2023-06-24T11:19:13;3.87;;;2.57;;
1679;SDS011;838;51.794;12.258;2023-06-24T11:21:39;4.13;;;2.50;;
1679;SDS011;838;51.794;12.258;2023-06-24T11:24:05;3.67;;;2.20;;
1679;SDS011;838;51.794;12.258;2023-06-24T11:26:31;5.63;;;2.60;;
1679;SDS011;838;51.794;12.258;2023-06-24T11:28:58;5.47;;;2.73;;
1679;SDS011;838;51.794;12.258;2023-06-24T11:31:25;4.40;;;2.83;;
1679;SDS011;838;51.794;12.258;2023-06-24T11:33:51;3.70;;;2.30;;
1679;SDS011;838;51.794;12.258;2023-06-24T11:36:20;4.47;;;2.70;;
1679;SDS011;838;51.794;12.258;2023-06-24T11:38:47;4.20;;;2.60;;
1679;SDS011;838;51.794;12.258;2023-06-24T11:41:14;4.23;;;2.60;;
1679;SDS011;838;51.794;12.258;2023-06-24T11:43:44;4.23;;;2.50;;
1679;SDS011;838;51.794;12.258;2023-06-24T11:46:10;4.47;;;3.00;;
1679;SDS011;838;51.794;12.258;2023-06-24T11:48:45;4.80;;;2.60;;
1679;SDS011;838;51.794;12.258;2023-06-24T11:51:14;4.10;;;3.00;;
1679;SDS011;838;51.794;12.258;2023-06-24T11:53:40;4.60;;;2.60;;
1679;SDS011;838;51.794;12.258;2023-06-24T11:56:08;4.33;;;2.40;;
1679;SDS011;838;51.794;12.258;2023-06-24T11:58:34;4.60;;;3.17;;
1679;SDS011;838;51.794;12.258;2023-06-24T12:01:00;3.90;;;2.30;;
1679;SDS011;838;51.794;12.258;2023-06-24T12:03:27;3.97;;;2.37;;
1679;SDS011;838;51.794;12.258;2023-06-24T12:05:58;4.00;;;2.70;;
1679;SDS011;838;51.794;12.258;2023-06-24T12:08:24;5.13;;;3.20;;
1679;SDS011;838;51.794;12.258;2023-06-24T12:10:51;4.23;;;2.80;;
1679;SDS011;838;51.794;12.258;2023-06-24T12:13:17;4.43;;;2.87;;
1679;SDS011;838;51.794;12.258;2023-06-24T12:15:43;4.20;;;2.90;;
1679;SDS011;838;51.794;12.258;2023-06-24T12:18:08;3.97;;;2.73;;
1679;SDS011;838;51.794;12.258;2023-06-24T12:20:34;4.47;;;3.30;;
1679;SDS011;838;51.794;12.258;2023-06-24T12:23:01;3.93;;;2.53;;
1679;SDS011;838;51.794;12.258;2023-06-24T12:25:28;4.73;;;2.67;;
1679;SDS011;838;51.794;12.258;2023-06-24T12:27:54;4.37;;;2.60;;
1679;SDS011;838;51.794;12.258;2023-06-24T12:30:20;4.20;;;2.53;;
1679;SDS011;838;51.794;12.258;2023-06-24T12:32:49;3.87;;;2.47;;
1679;SDS011;838;51.794;12.258;2023-06-24T12:35:15;3.90;;;2.80;;
1679;SDS011;838;51.794;12.258;2023-06-24T12:37:41;3.87;;;2.63;;
1679;SDS011;838;51.794;12.258;2023-06-24T12:40:06;3.70;;;2.20;;
1679;SDS011;838;51.794;12.258;2023-06-24T12:42:32;3.90;;;2.70;;
1679;SDS011;838;51.794;12.258;2023-06-24T12:44:58;3.73;;;2.17;;
1679;SDS011;838;51.794;12.258;2023-06-24T12:47:25;4.27;;;2.70;;
1679;SDS011;838;51.794;12.258;2023-06-24T12:49:50;4.10;;;2.43;;
1679;SDS011;838;51.794;12.258;2023-06-24T12:52:17;4.10;;;2.60;;
1679;SDS011;838;51.794;12.258;2023-06-24T12:54:44;4.83;;;3.13;;
1679;SDS011;838;51.794;12.258;2023-06-24T12:57:09;3.97;;;2.87;;
1679;SDS011;838;51.794;12.258;2023-06-24T12:59:35;4.37;;;2.73;;
1679;SDS011;838;51.794;12.258;2023-06-24T13:02:01;3.40;;;2.47;;
1679;SDS011;838;51.794;12.258;2023-06-24T13:04:27;4.20;;;2.70;;
1679;SDS011;838;51.794;12.258;2023-06-24T13:06:53;4.07;;;2.60;;
1679;SDS011;838;51.794;12.258;2023-06-24T13:09:19;3.60;;;2.37;;
1679;SDS011;838;51.794;12.258;2023-06-24T13:11:45;4.37;;;3.00;;
1679;SDS011;838;51.794;12.258;2023-06-24T13:14:12;3.50;;;2.20;;
1679;SDS011;838;51.794;12.258;2023-06-24T13:16:38;4.30;;;3.00;;
1679;SDS011;838;51.794;12.258;2023-06-24T13:19:04;4.77;;;2.47;;
1679;SDS011;838;51.794;12.258;2023-06-24T13:21:30;3.60;;;2.33;;
1679;SDS011;838;51.794;12.258;2023-06-24T13:23:55;3.70;;;2.30;;
1679;SDS011;838;51.794;12.258;2023-06-24T13:26:21;4.80;;;2.87;;
1679;SDS011;838;51.794;12.258;2023-06-24T13:28:47;4.13;;;3.10;;
1679;SDS011;838;51.794;12.258;2023-06-24T13:31:14;5.07;;;3.20;;
1679;SDS011;838;51.794;12.258;2023-06-24T13:33:40;3.60;;;2.33;;
1679;SDS011;838;51.794;12.258;2023-06-24T13:36:06;4.33;;;2.67;;
1679;SDS011;838;51.794;12.258;2023-06-24T13:38:36;3.90;;;2.50;;
1679;SDS011;838;51.794;12.258;2023-06-24T13:41:02;4.63;;;2.60;;
1679;SDS011;838;51.794;12.258;2023-06-24T13:43:28;4.77;;;3.10;;
1679;SDS011;838;51.794;12.258;2023-06-24T13:45:54;3.57;;;2.50;;
1679;SDS011;838;51.794;12.258;2023-06-24T13:48:19;3.70;;;2.40;;
1679;SDS011;838;51.794;12.258;2023-06-24T13:50:45;4.40;;;3.27;;
1679;SDS011;838;51.794;12.258;2023-06-24T13:53:11;5.03;;;3.53;;
1679;SDS011;838;51.794;12.258;2023-06-24T13:55:37;4.40;;;2.80;;
1679;SDS011;838;51.794;12.258;2023-06-24T13:58:02;3.30;;;2.20;;
1679;SDS011;838;51.794;12.258;2023-06-24T14:00:28;4.70;;;2.60;;
1679;SDS011;838;51.794;12.258;2023-06-24T14:02:54;4.47;;;2.33;;
1679;SDS011;838;51.794;12.258;2023-06-24T14:05:20;5.10;;;2.40;;
1679;SDS011;838;51.794;12.258;2023-06-24T14:07:46;4.30;;;2.60;;
1679;SDS011;838;51.794;12.258;2023-06-24T14:10:11;3.17;;;2.00;;
1679;SDS011;838;51.794;12.258;2023-06-24T14:12:37;4.30;;;2.37;;
1679;SDS011;838;51.794;12.258;2023-06-24T14:15:04;4.13;;;2.63;;
1679;SDS011;838;51.794;12.258;2023-06-24T14:17:30;4.03;;;2.47;;
1679;SDS011;838;51.794;12.258;2023-06-24T14:19:55;3.30;;;2.03;;
1679;SDS011;838;51.794;12.258;2023-06-24T14:22:21;4.07;;;2.50;;
1679;SDS011;838;51.794;12.258;2023-06-24T14:24:47;3.63;;;2.53;;
1679;SDS011;838;51.794;12.258;2023-06-24T14:27:13;4.77;;;2.57;;
1679;SDS011;838;51.794;12.258;2023-06-24T14:29:39;3.23;;;2.10;;
1679;SDS011;838;51.794;12.258;2023-06-24T14:32:05;5.17;;;2.73;;
1679;SDS011;838;51.794;12.258;2023-06-24T14:34:31;3.80;;;2.40;;
1679;SDS011;838;51.794;12.258;2023-06-24T14:36:57;3.40;;;2.10;;
1679;SDS011;838;51.794;12.258;2023-06-24T14:39:23;3.63;;;2.40;;
1679;SDS011;838;51.794;12.258;2023-06-24T14:41:49;4.77;;;2.50;;
1679;SDS011;838;51.794;12.258;2023-06-24T14:44:14;3.57;;;2.27;;
1679;SDS011;838;51.794;12.258;2023-06-24T14:46:40;3.80;;;2.33;;
1679;SDS011;838;51.794;12.258;2023-06-24T14:49:06;3.80;;;2.40;;
1679;SDS011;838;51.794;12.258;2023-06-24T14:51:32;3.30;;;2.10;;
1679;SDS011;838;51.794;12.258;2023-06-24T14:53:58;3.63;;;2.20;;
1679;SDS011;838;51.794;12.258;2023-06-24T14:56:23;4.77;;;2.30;;
1679;SDS011;838;51.794;12.258;2023-06-24T14:58:50;4.60;;;2.93;;
1679;SDS011;838;51.794;12.258;2023-06-24T15:01:16;3.40;;;2.10;;
1679;SDS011;838;51.794;12.258;2023-06-24T15:03:42;3.40;;;2.50;;
1679;SDS011;838;51.794;12.258;2023-06-24T15:06:07;3.37;;;2.00;;
1679;SDS011;838;51.794;12.258;2023-06-24T15:08:33;3.10;;;2.20;;
1679;SDS011;838;51.794;12.258;2023-06-24T15:10:59;3.80;;;2.43;;
1679;SDS011;838;51.794;12.258;2023-06-24T15:13:24;4.20;;;2.20;;
1679;SDS011;838;51.794;12.258;2023-06-24T15:15:50;4.07;;;2.20;;
1679;SDS011;838;51.794;12.258;2023-06-24T15:18:17;3.40;;;2.30;;
1679;SDS011;838;51.794;12.258;2023-06-24T15:20:42;3.93;;;2.60;;
1679;SDS011;838;51.794;12.258;2023-06-24T15:23:08;4.03;;;2.37;;
1679;SDS011;838;51.794;12.258;2023-06-24T15:25:34;3.60;;;2.13;;
1679;SDS011;838;51.794;12.258;2023-06-24T15:28:00;4.40;;;3.03;;
1679;SDS011;838;51.794;12.258;2023-06-24T15:30:26;3.77;;;2.10;;
1679;SDS011;838;51.794;12.258;2023-06-24T15:32:52;3.50;;;2.20;;